createdAt,value
2023-04-28T00:00:37.874Z,8.40
2023-04-28T00:05:39.361Z,9.10
2023-04-28T00:10:41.056Z,10.10
2023-04-28T00:15:42.565Z,11.00
2023-04-28T00:20:44.493Z,10.90
2023-04-28T00:25:52.086Z,10.80
2023-04-28T00:30:53.617Z,10.30
2023-04-28T00:36:01.704Z,9.60
2023-04-28T00:41:04.035Z,9.70
2023-04-28T00:46:05.625Z,9.30
2023-04-28T00:51:08.075Z,9.60
2023-04-28T00:56:10.505Z,10.30
2023-04-28T01:01:12.307Z,12.10
2023-04-28T01:06:14.729Z,13.20
2023-04-28T01:11:16.588Z,13.10
2023-04-28T01:16:18.567Z,12.90
2023-04-28T01:21:30.441Z,11.30
2023-04-28T01:26:31.969Z,12.30
2023-04-28T01:31:33.544Z,11.50
2023-04-28T01:36:37.257Z,12.90
2023-04-28T01:41:39.164Z,11.50
2023-04-28T01:46:41.050Z,11.70
2023-04-28T01:51:43.026Z,11.30
2023-04-28T01:56:45.005Z,10.80
2023-04-28T02:01:46.766Z,11.30
2023-04-28T02:06:48.780Z,11.70
2023-04-28T02:11:50.400Z,11.30
2023-04-28T02:16:51.939Z,11.30
2023-04-28T02:21:53.421Z,12.00
2023-04-28T02:26:54.902Z,12.60
2023-04-28T02:31:56.460Z,10.90
2023-04-28T02:36:58.010Z,9.40
2023-04-28T02:41:59.528Z,9.80
2023-04-28T02:47:01.912Z,10.50
2023-04-28T02:52:03.773Z,5.60
2023-04-28T02:57:05.261Z,8.20
2023-04-28T03:02:06.768Z,8.90
2023-04-28T03:07:08.329Z,8.20
2023-04-28T03:12:09.849Z,8.40
2023-04-28T03:17:11.590Z,8.60
2023-04-28T03:22:13.114Z,11.30
2023-04-28T03:27:14.634Z,10.40
2023-04-28T03:32:16.534Z,11.60
2023-04-28T03:37:18.348Z,12.60
2023-04-28T03:42:19.846Z,13.60
2023-04-28T03:47:21.456Z,16.20
2023-04-28T03:52:23.008Z,16.60
2023-04-28T03:57:24.581Z,16.70
2023-04-28T04:02:26.314Z,18.70
2023-04-28T04:07:27.971Z,18.50
2023-04-28T04:12:29.473Z,21.20
2023-04-28T04:17:31.586Z,22.60
2023-04-28T04:22:33.116Z,21.10
2023-04-28T04:27:34.622Z,20.20
2023-04-28T04:32:36.122Z,17.70
2023-04-28T04:37:37.920Z,18.80
2023-04-28T04:42:39.462Z,17.70
2023-04-28T04:47:41.525Z,18.80
2023-04-28T04:52:43.240Z,15.40
2023-04-28T04:57:44.752Z,16.50
2023-04-28T05:02:46.358Z,16.70
2023-04-28T05:07:48.201Z,18.20
2023-04-28T05:12:49.860Z,17.60
2023-04-28T05:17:51.479Z,16.60
2023-04-28T05:22:53.127Z,15.40
2023-04-28T05:27:56.543Z,15.40
2023-04-28T05:32:58.096Z,15.70
2023-04-28T05:37:59.831Z,15.40
2023-04-28T05:43:01.492Z,18.00
2023-04-28T05:48:05.110Z,13.90
2023-04-28T05:53:07.589Z,14.90
2023-04-28T05:58:09.260Z,13.50
2023-04-28T06:03:11.533Z,17.40
2023-04-28T06:08:13.382Z,13.80
2023-04-28T06:13:15.113Z,14.20
2023-04-28T06:18:16.726Z,11.10
2023-04-28T06:23:18.268Z,11.50
2023-04-28T06:28:19.839Z,11.30
2023-04-28T06:33:21.868Z,9.50
2023-04-28T06:38:23.458Z,10.90
2023-04-28T06:43:24.984Z,10.20
2023-04-28T06:48:26.645Z,11.40
2023-04-28T06:53:28.167Z,9.50
2023-04-28T06:58:29.818Z,8.50
2023-04-28T07:03:31.504Z,7.00
2023-04-28T07:08:33.396Z,9.60
2023-04-28T07:13:35.079Z,7.10
2023-04-28T07:18:36.590Z,7.60
2023-04-28T07:23:38.845Z,8.20
2023-04-28T07:28:40.427Z,7.60
2023-04-28T07:33:41.920Z,9.70
2023-04-28T07:38:43.641Z,8.70
2023-04-28T07:43:45.321Z,8.80
2023-04-28T07:48:46.859Z,8.90
2023-04-28T07:53:48.373Z,4.00
2023-04-28T07:58:50.051Z,37.70
2023-04-28T08:03:54.202Z,5.40
2023-04-28T08:08:56.073Z,5.10
2023-04-28T08:14:01.327Z,4.30
2023-04-28T08:19:02.865Z,4.50
2023-04-28T08:24:05.153Z,4.80
2023-04-28T08:29:06.660Z,4.40
2023-04-28T08:34:08.171Z,5.00
2023-04-28T08:39:10.744Z,5.50
2023-04-28T08:44:14.251Z,4.60
2023-04-28T08:49:18.544Z,4.20
2023-04-28T08:54:26.649Z,4.90
2023-04-28T08:59:28.989Z,5.30
2023-04-28T09:04:30.830Z,4.70
2023-04-28T09:09:34.996Z,5.00
2023-04-28T09:14:39.216Z,10.90
2023-04-28T09:19:44.684Z,4.90
2023-04-28T09:24:47.141Z,5.10
2023-04-28T09:29:54.075Z,3.90
2023-04-28T09:34:59.884Z,3.50
2023-04-28T09:40:09.933Z,4.30
2023-04-28T09:45:14.089Z,3.70
2023-04-28T09:50:17.758Z,3.80
2023-04-28T09:55:20.806Z,4.40
2023-04-28T10:00:30.655Z,3.80
2023-04-28T10:05:34.111Z,4.40
2023-04-28T10:10:37.801Z,3.30
2023-04-28T10:15:39.690Z,6.20
2023-04-28T10:20:47.134Z,3.10
2023-04-28T10:25:52.959Z,3.30
2023-04-28T10:31:11.896Z,3.30
2023-04-28T10:36:55.853Z,3.20
2023-04-28T10:41:57.477Z,3.70
2023-04-28T10:47:06.965Z,3.10
2023-04-28T10:52:40.753Z,3.10
2023-04-28T10:57:42.928Z,4.10
2023-04-28T11:02:47.139Z,3.40
2023-04-28T11:08:26.224Z,4.20
2023-04-28T11:13:31.779Z,3.30
2023-04-28T11:18:55.489Z,4.10
2023-04-28T11:23:58.830Z,4.20
2023-04-28T11:29:00.414Z,4.30
2023-04-28T11:34:07.838Z,4.60
2023-04-28T11:39:10.963Z,4.60
2023-04-28T11:49:20.739Z,3.60
2023-04-28T11:54:27.656Z,3.90
2023-04-28T11:59:31.718Z,3.90
2023-04-28T12:04:38.359Z,4.90
2023-04-28T12:09:43.569Z,4.40
2023-04-28T12:14:59.438Z,4.40
2023-04-28T12:20:03.662Z,4.10
2023-04-28T12:25:07.022Z,5.50
2023-04-28T12:30:23.742Z,5.20
2023-04-28T12:35:26.884Z,5.10
2023-04-28T12:40:28.424Z,5.20
2023-04-28T12:45:31.347Z,5.90
2023-04-28T12:55:35.021Z,6.00
2023-04-28T13:00:40.263Z,6.90
2023-04-28T13:05:41.873Z,4.80
2023-04-28T13:10:43.646Z,6.20
2023-04-28T13:15:46.515Z,5.30
2023-04-28T13:25:50.834Z,5.30
2023-04-28T13:35:53.973Z,6.10
2023-04-28T13:40:55.473Z,5.50
2023-04-28T13:45:57.328Z,6.80
2023-04-28T13:50:58.851Z,5.40
2023-04-28T13:56:00.341Z,5.30
2023-04-28T14:01:03.807Z,5.20
2023-04-28T14:06:07.103Z,5.60
2023-04-28T14:11:09.509Z,4.20
2023-04-28T14:16:12.335Z,4.60
2023-04-28T14:21:13.948Z,6.30
2023-04-28T14:26:15.514Z,6.80
2023-04-28T14:31:18.338Z,7.20
2023-04-28T14:36:20.722Z,5.20
2023-04-28T14:41:22.286Z,6.30
2023-04-28T14:46:24.228Z,6.50
2023-04-28T14:51:26.142Z,4.90
2023-04-28T14:56:27.624Z,5.30
2023-04-28T15:01:31.252Z,5.40
2023-04-28T15:06:33.713Z,5.20
2023-04-28T15:11:35.335Z,5.10
2023-04-28T15:16:37.116Z,6.10
2023-04-28T15:21:39.222Z,5.20
2023-04-28T15:26:40.773Z,5.30
2023-04-28T15:31:42.368Z,5.50
2023-04-28T15:36:44.771Z,5.90
2023-04-28T15:41:47.153Z,5.50
2023-04-28T15:46:48.719Z,4.90
2023-04-28T15:51:50.515Z,4.40
2023-04-28T15:56:52.026Z,5.30
2023-04-28T16:01:55.506Z,5.50
2023-04-28T16:06:58.880Z,4.10
2023-04-28T16:12:01.077Z,5.00
2023-04-28T16:17:02.595Z,4.70
2023-04-28T16:22:04.109Z,5.40
2023-04-28T16:27:06.082Z,5.10
2023-04-28T16:32:07.729Z,5.90
2023-04-28T16:37:10.936Z,5.70
2023-04-28T16:42:12.442Z,6.20
2023-04-28T16:47:15.227Z,4.80
2023-04-28T16:52:17.036Z,4.70
2023-04-28T16:57:18.697Z,4.80
2023-04-28T17:02:20.321Z,4.60
2023-04-28T17:07:24.060Z,4.90
2023-04-28T17:12:27.146Z,5.00
2023-04-28T17:17:29.197Z,5.50
2023-04-28T17:22:34.786Z,6.80
2023-04-28T17:27:36.372Z,7.80
2023-04-28T17:32:38.722Z,7.60
2023-04-28T17:37:40.253Z,8.80
2023-04-28T17:42:45.262Z,7.80
2023-04-28T17:47:47.114Z,9.70
2023-04-28T17:52:48.945Z,11.00
2023-04-28T17:57:51.821Z,13.60
2023-04-28T18:02:55.177Z,10.00
2023-04-28T18:08:02.018Z,11.40
2023-04-28T18:13:03.550Z,13.00
2023-04-28T18:18:05.103Z,10.50
2023-04-28T18:23:07.241Z,8.00
2023-04-28T18:28:10.458Z,8.00
2023-04-28T18:33:11.963Z,10.00
2023-04-28T18:38:13.893Z,9.90
2023-04-28T18:43:15.572Z,12.40
2023-04-28T18:48:17.194Z,19.80
2023-04-28T18:53:19.059Z,11.10
2023-04-28T18:58:21.097Z,10.60
2023-04-28T19:03:23.771Z,11.70
2023-04-28T19:08:25.358Z,10.80
2023-04-28T19:13:27.438Z,12.00
2023-04-28T19:18:31.233Z,11.50
2023-04-28T19:23:33.909Z,12.50
2023-04-28T19:28:36.050Z,10.90
2023-04-28T19:33:37.564Z,11.70
2023-04-28T19:38:40.375Z,10.30
2023-04-28T19:43:43.511Z,12.40
2023-04-28T19:48:46.685Z,11.50
2023-04-28T19:53:49.387Z,10.70
2023-04-28T19:58:51.071Z,12.60
2023-04-28T20:03:54.186Z,10.70
2023-04-28T20:08:55.905Z,10.80
2023-04-28T20:13:57.530Z,9.30
2023-04-28T20:18:59.115Z,9.10
2023-04-28T20:24:00.585Z,9.00
2023-04-28T20:29:03.342Z,10.30
2023-04-28T20:34:04.878Z,12.70
2023-04-28T20:39:07.710Z,10.20
2023-04-28T20:44:09.225Z,9.00
2023-04-28T20:49:12.378Z,11.40
2023-04-28T20:54:14.520Z,11.80
2023-04-28T20:59:16.078Z,10.60
2023-04-28T21:04:17.631Z,10.60
2023-04-28T21:09:20.297Z,9.30
2023-04-28T21:14:22.210Z,10.70
2023-04-28T21:19:23.733Z,10.70
2023-04-28T21:24:25.286Z,11.60
2023-04-28T21:29:27.624Z,13.00
2023-04-28T21:34:29.337Z,11.30
2023-04-28T21:39:30.873Z,11.60
2023-04-28T21:44:32.343Z,11.10
2023-04-28T21:49:33.822Z,11.60
2023-04-28T21:54:35.841Z,11.50
2023-04-28T21:59:37.387Z,12.30
2023-04-28T22:04:39.017Z,11.20
2023-04-28T22:09:40.739Z,11.10
2023-04-28T22:14:42.231Z,10.80
2023-04-28T22:19:43.802Z,11.60
2023-04-28T22:24:45.447Z,12.00
2023-04-28T22:29:47.741Z,10.70
2023-04-28T22:34:49.631Z,10.30
2023-04-28T22:39:51.488Z,10.80
2023-04-28T22:44:53.363Z,9.90
2023-04-28T22:49:55.102Z,12.50
2023-04-28T22:54:56.789Z,11.40
2023-04-28T22:59:58.552Z,11.40
2023-04-28T23:05:01.187Z,12.90
2023-04-28T23:10:05.072Z,10.90
2023-04-28T23:15:07.477Z,12.10
2023-04-28T23:20:09.851Z,10.50
2023-04-28T23:25:11.557Z,11.00
2023-04-28T23:30:13.330Z,10.20
2023-04-28T23:35:15.386Z,11.10
2023-04-28T23:40:16.910Z,11.10
2023-04-28T23:45:18.561Z,9.10
2023-04-28T23:50:20.050Z,11.70
2023-04-28T23:55:21.564Z,12.60
